sensor_id;sensor_type;location;lat;lon;timestamp;P1;durP1;ratioP1;P2;durP2;ratioP2
18576;SDS011;9418;52.694;13.294;2023-04-27T00:01:49;2.77;;;2.57;;
18576;SDS011;9418;52.694;13.294;2023-04-27T00:04:17;7.50;;;2.87;;
18576;SDS011;9418;52.694;13.294;2023-04-27T00:06:44;10.23;;;2.30;;
18576;SDS011;9418;52.694;13.294;2023-04-27T00:09:11;4.50;;;2.73;;
18576;SDS011;9418;52.694;13.294;2023-04-27T00:11:37;4.97;;;2.70;;
18576;SDS011;9418;52.694;13.294;2023-04-27T00:14:04;3.30;;;2.30;;
18576;SDS011;9418;52.694;13.294;2023-04-27T00:16:31;4.30;;;2.97;;
18576;SDS011;9418;52.694;13.294;2023-04-27T00:18:57;4.47;;;2.63;;
18576;SDS011;9418;52.694;13.294;2023-04-27T00:21:26;10.90;;;3.17;;
18576;SDS011;9418;52.694;13.294;2023-04-27T00:23:52;3.40;;;2.33;;
18576;SDS011;9418;52.694;13.294;2023-04-27T00:26:19;5.67;;;2.50;;
18576;SDS011;9418;52.694;13.294;2023-04-27T00:28:46;4.87;;;3.07;;
18576;SDS011;9418;52.694;13.294;2023-04-27T00:31:13;5.10;;;2.80;;
18576;SDS011;9418;52.694;13.294;2023-04-27T00:33:39;2.97;;;2.57;;
18576;SDS011;9418;52.694;13.294;2023-04-27T00:36:06;11.63;;;3.03;;
18576;SDS011;9418;52.694;13.294;2023-04-27T00:38:35;6.67;;;2.50;;
18576;SDS011;9418;52.694;13.294;2023-04-27T00:41:01;2.43;;;2.23;;
18576;SDS011;9418;52.694;13.294;2023-04-27T00:43:29;8.93;;;3.27;;
18576;SDS011;9418;52.694;13.294;2023-04-27T00:45:56;2.50;;;2.30;;
18576;SDS011;9418;52.694;13.294;2023-04-27T00:48:24;3.67;;;2.50;;
18576;SDS011;9418;52.694;13.294;2023-04-27T00:50:51;4.63;;;2.23;;
18576;SDS011;9418;52.694;13.294;2023-04-27T00:53:18;6.30;;;3.40;;
18576;SDS011;9418;52.694;13.294;2023-04-27T00:55:46;4.60;;;3.10;;
18576;SDS011;9418;52.694;13.294;2023-04-27T00:58:13;4.10;;;2.40;;
18576;SDS011;9418;52.694;13.294;2023-04-27T01:00:40;8.33;;;3.20;;
18576;SDS011;9418;52.694;13.294;2023-04-27T01:03:07;7.23;;;3.10;;
18576;SDS011;9418;52.694;13.294;2023-04-27T01:05:34;4.17;;;2.43;;
18576;SDS011;9418;52.694;13.294;2023-04-27T01:08:02;6.00;;;2.73;;
18576;SDS011;9418;52.694;13.294;2023-04-27T01:10:29;5.40;;;3.10;;
18576;SDS011;9418;52.694;13.294;2023-04-27T01:12:56;7.83;;;3.23;;
18576;SDS011;9418;52.694;13.294;2023-04-27T01:15:23;2.90;;;2.17;;
18576;SDS011;9418;52.694;13.294;2023-04-27T01:17:55;5.03;;;2.90;;
18576;SDS011;9418;52.694;13.294;2023-04-27T01:20:22;4.03;;;2.20;;
18576;SDS011;9418;52.694;13.294;2023-04-27T01:22:49;3.23;;;2.00;;
18576;SDS011;9418;52.694;13.294;2023-04-27T01:25:17;5.13;;;2.70;;
18576;SDS011;9418;52.694;13.294;2023-04-27T01:27:44;2.77;;;2.10;;
18576;SDS011;9418;52.694;13.294;2023-04-27T01:30:11;5.53;;;2.60;;
18576;SDS011;9418;52.694;13.294;2023-04-27T01:32:37;3.37;;;2.60;;
18576;SDS011;9418;52.694;13.294;2023-04-27T01:35:04;4.73;;;2.10;;
18576;SDS011;9418;52.694;13.294;2023-04-27T01:37:31;5.97;;;2.50;;
18576;SDS011;9418;52.694;13.294;2023-04-27T01:39:58;3.73;;;2.17;;
18576;SDS011;9418;52.694;13.294;2023-04-27T01:42:26;3.80;;;2.47;;
18576;SDS011;9418;52.694;13.294;2023-04-27T01:44:52;7.87;;;2.97;;
18576;SDS011;9418;52.694;13.294;2023-04-27T01:47:19;4.70;;;2.23;;
18576;SDS011;9418;52.694;13.294;2023-04-27T01:49:46;5.90;;;2.67;;
18576;SDS011;9418;52.694;13.294;2023-04-27T01:52:12;3.10;;;2.30;;
18576;SDS011;9418;52.694;13.294;2023-04-27T01:54:39;8.07;;;2.50;;
18576;SDS011;9418;52.694;13.294;2023-04-27T01:57:05;5.80;;;2.47;;
18576;SDS011;9418;52.694;13.294;2023-04-27T01:59:33;9.10;;;2.27;;
18576;SDS011;9418;52.694;13.294;2023-04-27T02:02:00;6.53;;;1.90;;
18576;SDS011;9418;52.694;13.294;2023-04-27T02:04:26;6.00;;;3.80;;
18576;SDS011;9418;52.694;13.294;2023-04-27T02:06:53;6.97;;;2.70;;
18576;SDS011;9418;52.694;13.294;2023-04-27T02:09:19;3.00;;;2.10;;
18576;SDS011;9418;52.694;13.294;2023-04-27T02:11:46;6.73;;;3.33;;
18576;SDS011;9418;52.694;13.294;2023-04-27T02:14:13;6.07;;;2.50;;
18576;SDS011;9418;52.694;13.294;2023-04-27T02:16:40;3.57;;;2.60;;
18576;SDS011;9418;52.694;13.294;2023-04-27T02:19:07;11.73;;;2.53;;
18576;SDS011;9418;52.694;13.294;2023-04-27T02:21:33;5.83;;;2.67;;
18576;SDS011;9418;52.694;13.294;2023-04-27T02:24:01;7.47;;;2.83;;
18576;SDS011;9418;52.694;13.294;2023-04-27T02:26:27;4.10;;;2.40;;
18576;SDS011;9418;52.694;13.294;2023-04-27T02:28:54;7.07;;;2.10;;
18576;SDS011;9418;52.694;13.294;2023-04-27T02:31:21;6.03;;;2.57;;
18576;SDS011;9418;52.694;13.294;2023-04-27T02:33:49;3.47;;;2.60;;
18576;SDS011;9418;52.694;13.294;2023-04-27T02:36:16;4.27;;;2.00;;
18576;SDS011;9418;52.694;13.294;2023-04-27T02:38:42;3.17;;;2.03;;
18576;SDS011;9418;52.694;13.294;2023-04-27T02:41:09;6.30;;;2.40;;
18576;SDS011;9418;52.694;13.294;2023-04-27T02:43:36;6.93;;;2.60;;
18576;SDS011;9418;52.694;13.294;2023-04-27T02:46:02;4.10;;;2.40;;
18576;SDS011;9418;52.694;13.294;2023-04-27T02:48:29;3.30;;;2.17;;
18576;SDS011;9418;52.694;13.294;2023-04-27T02:50:57;6.00;;;2.53;;
18576;SDS011;9418;52.694;13.294;2023-04-27T02:53:24;8.80;;;3.10;;
18576;SDS011;9418;52.694;13.294;2023-04-27T02:55:51;6.30;;;2.40;;
18576;SDS011;9418;52.694;13.294;2023-04-27T02:58:17;6.00;;;2.70;;
18576;SDS011;9418;52.694;13.294;2023-04-27T03:00:44;8.17;;;2.63;;
18576;SDS011;9418;52.694;13.294;2023-04-27T03:03:10;4.40;;;2.33;;
18576;SDS011;9418;52.694;13.294;2023-04-27T03:05:37;4.67;;;2.73;;
18576;SDS011;9418;52.694;13.294;2023-04-27T03:08:05;10.27;;;2.90;;
18576;SDS011;9418;52.694;13.294;2023-04-27T03:10:31;14.80;;;2.40;;
18576;SDS011;9418;52.694;13.294;2023-04-27T03:12:58;3.63;;;2.60;;
18576;SDS011;9418;52.694;13.294;2023-04-27T03:15:25;5.53;;;2.30;;
18576;SDS011;9418;52.694;13.294;2023-04-27T03:17:51;3.87;;;2.87;;
18576;SDS011;9418;52.694;13.294;2023-04-27T03:20:18;4.57;;;2.30;;
18576;SDS011;9418;52.694;13.294;2023-04-27T03:22:44;6.93;;;3.27;;
18576;SDS011;9418;52.694;13.294;2023-04-27T03:25:12;5.57;;;2.50;;
18576;SDS011;9418;52.694;13.294;2023-04-27T03:27:39;7.50;;;2.50;;
18576;SDS011;9418;52.694;13.294;2023-04-27T03:30:07;6.10;;;2.83;;
18576;SDS011;9418;52.694;13.294;2023-04-27T03:32:35;9.17;;;2.53;;
18576;SDS011;9418;52.694;13.294;2023-04-27T03:35:02;6.97;;;2.30;;
18576;SDS011;9418;52.694;13.294;2023-04-27T03:37:29;8.63;;;3.40;;
18576;SDS011;9418;52.694;13.294;2023-04-27T03:39:56;14.17;;;3.30;;
18576;SDS011;9418;52.694;13.294;2023-04-27T03:42:24;6.30;;;2.60;;
18576;SDS011;9418;52.694;13.294;2023-04-27T03:44:51;8.73;;;2.67;;
18576;SDS011;9418;52.694;13.294;2023-04-27T03:47:17;4.87;;;2.50;;
18576;SDS011;9418;52.694;13.294;2023-04-27T03:49:44;5.93;;;2.30;;
18576;SDS011;9418;52.694;13.294;2023-04-27T03:52:10;5.87;;;2.80;;
18576;SDS011;9418;52.694;13.294;2023-04-27T03:54:37;6.90;;;2.90;;
18576;SDS011;9418;52.694;13.294;2023-04-27T03:57:03;7.60;;;3.37;;
18576;SDS011;9418;52.694;13.294;2023-04-27T03:59:31;3.80;;;2.30;;
18576;SDS011;9418;52.694;13.294;2023-04-27T04:01:58;9.53;;;2.57;;
18576;SDS011;9418;52.694;13.294;2023-04-27T04:04:24;6.97;;;2.60;;
18576;SDS011;9418;52.694;13.294;2023-04-27T04:06:51;5.93;;;3.10;;
18576;SDS011;9418;52.694;13.294;2023-04-27T04:09:17;5.83;;;2.90;;
18576;SDS011;9418;52.694;13.294;2023-04-27T04:11:44;8.50;;;2.90;;
18576;SDS011;9418;52.694;13.294;2023-04-27T04:14:11;7.20;;;3.10;;
18576;SDS011;9418;52.694;13.294;2023-04-27T04:16:39;7.60;;;3.33;;
18576;SDS011;9418;52.694;13.294;2023-04-27T04:19:05;3.67;;;2.90;;
18576;SDS011;9418;52.694;13.294;2023-04-27T04:21:32;5.20;;;2.50;;
18576;SDS011;9418;52.694;13.294;2023-04-27T04:23:58;3.60;;;2.10;;
18576;SDS011;9418;52.694;13.294;2023-04-27T04:26:25;7.83;;;2.47;;
18576;SDS011;9418;52.694;13.294;2023-04-27T04:28:52;16.60;;;2.30;;
18576;SDS011;9418;52.694;13.294;2023-04-27T04:31:18;4.70;;;2.47;;
18576;SDS011;9418;52.694;13.294;2023-04-27T04:33:47;5.97;;;2.70;;
18576;SDS011;9418;52.694;13.294;2023-04-27T04:36:13;3.73;;;2.37;;
18576;SDS011;9418;52.694;13.294;2023-04-27T04:38:40;6.37;;;2.40;;
18576;SDS011;9418;52.694;13.294;2023-04-27T04:41:06;5.27;;;2.83;;
18576;SDS011;9418;52.694;13.294;2023-04-27T04:43:34;9.03;;;2.70;;
18576;SDS011;9418;52.694;13.294;2023-04-27T04:46:01;6.30;;;2.70;;
18576;SDS011;9418;52.694;13.294;2023-04-27T04:48:27;4.87;;;3.20;;
18576;SDS011;9418;52.694;13.294;2023-04-27T04:50:55;5.50;;;2.37;;
18576;SDS011;9418;52.694;13.294;2023-04-27T04:53:22;8.67;;;2.80;;
18576;SDS011;9418;52.694;13.294;2023-04-27T04:55:48;6.93;;;2.90;;
18576;SDS011;9418;52.694;13.294;2023-04-27T04:58:15;10.87;;;3.07;;
18576;SDS011;9418;52.694;13.294;2023-04-27T05:00:41;4.47;;;2.90;;
18576;SDS011;9418;52.694;13.294;2023-04-27T05:03:08;5.57;;;2.60;;
18576;SDS011;9418;52.694;13.294;2023-04-27T05:05:35;7.40;;;2.80;;
18576;SDS011;9418;52.694;13.294;2023-04-27T05:08:03;8.33;;;2.43;;
18576;SDS011;9418;52.694;13.294;2023-04-27T05:10:30;10.13;;;3.13;;
18576;SDS011;9418;52.694;13.294;2023-04-27T05:12:56;7.60;;;2.93;;
18576;SDS011;9418;52.694;13.294;2023-04-27T05:15:23;12.73;;;4.00;;
18576;SDS011;9418;52.694;13.294;2023-04-27T05:17:50;3.90;;;2.50;;
18576;SDS011;9418;52.694;13.294;2023-04-27T05:20:18;8.07;;;2.90;;
18576;SDS011;9418;52.694;13.294;2023-04-27T05:22:44;8.07;;;3.00;;
18576;SDS011;9418;52.694;13.294;2023-04-27T05:25:12;9.97;;;3.33;;
18576;SDS011;9418;52.694;13.294;2023-04-27T05:27:39;5.87;;;3.10;;
18576;SDS011;9418;52.694;13.294;2023-04-27T05:30:07;3.17;;;2.87;;
18576;SDS011;9418;52.694;13.294;2023-04-27T05:32:35;6.80;;;2.70;;
18576;SDS011;9418;52.694;13.294;2023-04-27T05:35:01;10.13;;;3.30;;
18576;SDS011;9418;52.694;13.294;2023-04-27T05:37:29;3.40;;;2.50;;
18576;SDS011;9418;52.694;13.294;2023-04-27T05:39:55;4.03;;;3.27;;
18576;SDS011;9418;52.694;13.294;2023-04-27T05:42:23;10.23;;;2.77;;
18576;SDS011;9418;52.694;13.294;2023-04-27T05:44:50;2.87;;;2.00;;
18576;SDS011;9418;52.694;13.294;2023-04-27T05:47:16;4.43;;;2.60;;
18576;SDS011;9418;52.694;13.294;2023-04-27T05:49:43;7.77;;;3.10;;
18576;SDS011;9418;52.694;13.294;2023-04-27T05:52:09;6.53;;;2.63;;
18576;SDS011;9418;52.694;13.294;2023-04-27T05:54:36;25.50;;;3.27;;
18576;SDS011;9418;52.694;13.294;2023-04-27T05:57:03;11.50;;;3.23;;
18576;SDS011;9418;52.694;13.294;2023-04-27T05:59:31;14.00;;;2.67;;
18576;SDS011;9418;52.694;13.294;2023-04-27T06:01:57;6.73;;;3.10;;
18576;SDS011;9418;52.694;13.294;2023-04-27T06:04:24;13.43;;;3.20;;
18576;SDS011;9418;52.694;13.294;2023-04-27T06:06:51;7.90;;;3.17;;
18576;SDS011;9418;52.694;13.294;2023-04-27T06:09:17;5.90;;;2.20;;
18576;SDS011;9418;52.694;13.294;2023-04-27T06:11:44;7.73;;;2.90;;
18576;SDS011;9418;52.694;13.294;2023-04-27T06:14:11;5.13;;;2.47;;
18576;SDS011;9418;52.694;13.294;2023-04-27T06:16:39;4.90;;;3.07;;
18576;SDS011;9418;52.694;13.294;2023-04-27T06:19:05;5.67;;;2.70;;
18576;SDS011;9418;52.694;13.294;2023-04-27T06:21:32;9.20;;;2.77;;
18576;SDS011;9418;52.694;13.294;2023-04-27T06:23:59;7.97;;;3.03;;
18576;SDS011;9418;52.694;13.294;2023-04-27T06:26:26;10.47;;;2.70;;
18576;SDS011;9418;52.694;13.294;2023-04-27T06:28:53;7.57;;;3.13;;
18576;SDS011;9418;52.694;13.294;2023-04-27T06:31:20;8.50;;;3.10;;
18576;SDS011;9418;52.694;13.294;2023-04-27T06:33:48;4.70;;;2.97;;
18576;SDS011;9418;52.694;13.294;2023-04-27T06:36:14;7.10;;;2.93;;
18576;SDS011;9418;52.694;13.294;2023-04-27T06:38:41;7.70;;;3.00;;
18576;SDS011;9418;52.694;13.294;2023-04-27T06:41:07;18.87;;;2.70;;
18576;SDS011;9418;52.694;13.294;2023-04-27T06:43:34;15.23;;;3.33;;
18576;SDS011;9418;52.694;13.294;2023-04-27T06:46:01;5.07;;;2.90;;
18576;SDS011;9418;52.694;13.294;2023-04-27T06:48:27;6.17;;;2.50;;
18576;SDS011;9418;52.694;13.294;2023-04-27T06:50:55;4.73;;;2.73;;
18576;SDS011;9418;52.694;13.294;2023-04-27T06:53:22;7.90;;;2.70;;
18576;SDS011;9418;52.694;13.294;2023-04-27T06:55:48;3.53;;;2.13;;
18576;SDS011;9418;52.694;13.294;2023-04-27T06:58:15;8.13;;;3.13;;
18576;SDS011;9418;52.694;13.294;2023-04-27T07:00:42;4.40;;;2.77;;
18576;SDS011;9418;52.694;13.294;2023-04-27T07:03:08;6.87;;;2.70;;
18576;SDS011;9418;52.694;13.294;2023-04-27T07:05:35;4.30;;;2.30;;
18576;SDS011;9418;52.694;13.294;2023-04-27T07:08:03;5.10;;;2.57;;
18576;SDS011;9418;52.694;13.294;2023-04-27T07:10:30;3.97;;;2.60;;
18576;SDS011;9418;52.694;13.294;2023-04-27T07:12:56;6.93;;;2.87;;
18576;SDS011;9418;52.694;13.294;2023-04-27T07:15:23;4.10;;;2.53;;
18576;SDS011;9418;52.694;13.294;2023-04-27T07:17:50;9.97;;;2.00;;
18576;SDS011;9418;52.694;13.294;2023-04-27T07:20:18;7.97;;;2.60;;
18576;SDS011;9418;52.694;13.294;2023-04-27T07:22:44;5.10;;;2.30;;
18576;SDS011;9418;52.694;13.294;2023-04-27T07:25:12;9.63;;;2.30;;
18576;SDS011;9418;52.694;13.294;2023-04-27T07:27:39;8.80;;;2.70;;
18576;SDS011;9418;52.694;13.294;2023-04-27T07:30:07;7.17;;;2.70;;
18576;SDS011;9418;52.694;13.294;2023-04-27T07:32:34;11.07;;;2.67;;
18576;SDS011;9418;52.694;13.294;2023-04-27T07:35:02;3.93;;;2.13;;
18576;SDS011;9418;52.694;13.294;2023-04-27T07:37:29;9.00;;;2.60;;
18576;SDS011;9418;52.694;13.294;2023-04-27T07:39:56;4.60;;;2.07;;
18576;SDS011;9418;52.694;13.294;2023-04-27T07:42:24;8.17;;;2.57;;
18576;SDS011;9418;52.694;13.294;2023-04-27T07:44:51;4.03;;;2.07;;
18576;SDS011;9418;52.694;13.294;2023-04-27T07:47:18;3.40;;;2.00;;
18576;SDS011;9418;52.694;13.294;2023-04-27T07:49:45;14.10;;;2.60;;
18576;SDS011;9418;52.694;13.294;2023-04-27T07:52:12;4.57;;;1.67;;
18576;SDS011;9418;52.694;13.294;2023-04-27T07:54:39;7.90;;;2.50;;
18576;SDS011;9418;52.694;13.294;2023-04-27T07:57:06;2.60;;;1.77;;
18576;SDS011;9418;52.694;13.294;2023-04-27T07:59:35;3.53;;;2.23;;
18576;SDS011;9418;52.694;13.294;2023-04-27T08:02:02;3.57;;;2.23;;
18576;SDS011;9418;52.694;13.294;2023-04-27T08:04:28;7.97;;;2.30;;
18576;SDS011;9418;52.694;13.294;2023-04-27T08:06:55;4.83;;;2.23;;
18576;SDS011;9418;52.694;13.294;2023-04-27T08:09:22;5.30;;;2.40;;
18576;SDS011;9418;52.694;13.294;2023-04-27T08:11:49;3.20;;;2.23;;
18576;SDS011;9418;52.694;13.294;2023-04-27T08:14:16;3.67;;;2.60;;
18576;SDS011;9418;52.694;13.294;2023-04-27T08:16:44;4.03;;;1.90;;
18576;SDS011;9418;52.694;13.294;2023-04-27T08:19:11;4.03;;;1.97;;
18576;SDS011;9418;52.694;13.294;2023-04-27T08:21:37;3.30;;;1.97;;
18576;SDS011;9418;52.694;13.294;2023-04-27T08:24:04;7.10;;;2.30;;
18576;SDS011;9418;52.694;13.294;2023-04-27T08:26:31;3.90;;;2.73;;
18576;SDS011;9418;52.694;13.294;2023-04-27T08:28:59;7.43;;;2.70;;
18576;SDS011;9418;52.694;13.294;2023-04-27T08:31:26;4.10;;;1.83;;
18576;SDS011;9418;52.694;13.294;2023-04-27T08:33:54;3.37;;;1.90;;
18576;SDS011;9418;52.694;13.294;2023-04-27T08:36:22;2.07;;;1.70;;
18576;SDS011;9418;52.694;13.294;2023-04-27T08:38:50;4.60;;;2.20;;
18576;SDS011;9418;52.694;13.294;2023-04-27T08:41:17;5.37;;;2.13;;
18576;SDS011;9418;52.694;13.294;2023-04-27T08:43:45;10.80;;;2.00;;
18576;SDS011;9418;52.694;13.294;2023-04-27T08:46:13;3.30;;;1.67;;
18576;SDS011;9418;52.694;13.294;2023-04-27T08:48:43;8.17;;;2.00;;
18576;SDS011;9418;52.694;13.294;2023-04-27T08:51:11;2.70;;;1.93;;
18576;SDS011;9418;52.694;13.294;2023-04-27T08:53:44;6.77;;;2.47;;
18576;SDS011;9418;52.694;13.294;2023-04-27T08:56:12;4.53;;;1.70;;
18576;SDS011;9418;52.694;13.294;2023-04-27T08:58:39;7.23;;;1.63;;
18576;SDS011;9418;52.694;13.294;2023-04-27T09:01:06;4.20;;;1.80;;
18576;SDS011;9418;52.694;13.294;2023-04-27T09:03:33;12.30;;;2.20;;
18576;SDS011;9418;52.694;13.294;2023-04-27T09:06:00;2.40;;;1.80;;
18576;SDS011;9418;52.694;13.294;2023-04-27T09:08:28;6.90;;;2.10;;
18576;SDS011;9418;52.694;13.294;2023-04-27T09:11:05;7.23;;;1.57;;
18576;SDS011;9418;52.694;13.294;2023-04-27T09:13:35;5.07;;;1.63;;
18576;SDS011;9418;52.694;13.294;2023-04-27T09:16:02;2.57;;;1.60;;
18576;SDS011;9418;52.694;13.294;2023-04-27T09:18:29;8.30;;;1.80;;
18576;SDS011;9418;52.694;13.294;2023-04-27T09:20:58;4.27;;;1.70;;
18576;SDS011;9418;52.694;13.294;2023-04-27T09:23:25;1.73;;;1.50;;
18576;SDS011;9418;52.694;13.294;2023-04-27T09:25:55;3.70;;;2.00;;
18576;SDS011;9418;52.694;13.294;2023-04-27T09:28:23;2.63;;;1.67;;
18576;SDS011;9418;52.694;13.294;2023-04-27T09:30:51;6.70;;;1.90;;
18576;SDS011;9418;52.694;13.294;2023-04-27T09:33:22;4.10;;;2.20;;
18576;SDS011;9418;52.694;13.294;2023-04-27T09:35:50;2.97;;;1.97;;
18576;SDS011;9418;52.694;13.294;2023-04-27T09:38:17;2.50;;;1.60;;
18576;SDS011;9418;52.694;13.294;2023-04-27T09:40:44;3.67;;;1.27;;
18576;SDS011;9418;52.694;13.294;2023-04-27T09:43:13;1.30;;;1.20;;
18576;SDS011;9418;52.694;13.294;2023-04-27T09:45:40;1.63;;;1.53;;
18576;SDS011;9418;52.694;13.294;2023-04-27T09:48:07;4.20;;;1.70;;
18576;SDS011;9418;52.694;13.294;2023-04-27T09:50:34;8.33;;;1.93;;
18576;SDS011;9418;52.694;13.294;2023-04-27T09:53:01;4.87;;;1.60;;
18576;SDS011;9418;52.694;13.294;2023-04-27T09:55:33;2.83;;;1.60;;
18576;SDS011;9418;52.694;13.294;2023-04-27T09:58:07;6.30;;;1.60;;
18576;SDS011;9418;52.694;13.294;2023-04-27T10:00:52;4.03;;;1.30;;
18576;SDS011;9418;52.694;13.294;2023-04-27T10:03:27;3.43;;;1.67;;
18576;SDS011;9418;52.694;13.294;2023-04-27T10:09:02;2.90;;;1.77;;
18576;SDS011;9418;52.694;13.294;2023-04-27T10:11:36;3.63;;;1.67;;
18576;SDS011;9418;52.694;13.294;2023-04-27T10:14:06;4.30;;;1.50;;
18576;SDS011;9418;52.694;13.294;2023-04-27T10:16:42;5.43;;;2.70;;
18576;SDS011;9418;52.694;13.294;2023-04-27T10:19:11;6.33;;;1.90;;
18576;SDS011;9418;52.694;13.294;2023-04-27T10:21:49;5.67;;;1.90;;
18576;SDS011;9418;52.694;13.294;2023-04-27T10:24:17;6.23;;;1.73;;
18576;SDS011;9418;52.694;13.294;2023-04-27T10:26:45;4.90;;;1.73;;
18576;SDS011;9418;52.694;13.294;2023-04-27T10:29:14;2.90;;;1.10;;
18576;SDS011;9418;52.694;13.294;2023-04-27T10:31:42;1.70;;;1.60;;
18576;SDS011;9418;52.694;13.294;2023-04-27T10:34:10;3.63;;;1.50;;
18576;SDS011;9418;52.694;13.294;2023-04-27T10:36:40;4.70;;;1.80;;
18576;SDS011;9418;52.694;13.294;2023-04-27T10:39:13;1.53;;;1.43;;
18576;SDS011;9418;52.694;13.294;2023-04-27T10:41:47;6.20;;;1.97;;
18576;SDS011;9418;52.694;13.294;2023-04-27T10:44:17;5.10;;;2.30;;
18576;SDS011;9418;52.694;13.294;2023-04-27T10:46:51;1.63;;;1.50;;
18576;SDS011;9418;52.694;13.294;2023-04-27T10:49:19;3.00;;;1.53;;
18576;SDS011;9418;52.694;13.294;2023-04-27T10:51:46;3.10;;;1.57;;
18576;SDS011;9418;52.694;13.294;2023-04-27T10:54:14;1.73;;;1.63;;
18576;SDS011;9418;52.694;13.294;2023-04-27T10:56:41;11.10;;;2.37;;
18576;SDS011;9418;52.694;13.294;2023-04-27T10:59:07;3.37;;;1.63;;
18576;SDS011;9418;52.694;13.294;2023-04-27T11:01:35;3.80;;;1.50;;
18576;SDS011;9418;52.694;13.294;2023-04-27T11:04:02;2.30;;;1.50;;
18576;SDS011;9418;52.694;13.294;2023-04-27T11:06:29;1.90;;;1.53;;
18576;SDS011;9418;52.694;13.294;2023-04-27T11:08:57;2.30;;;1.80;;
18576;SDS011;9418;52.694;13.294;2023-04-27T11:11:24;3.27;;;1.20;;
18576;SDS011;9418;52.694;13.294;2023-04-27T11:13:51;3.13;;;1.20;;
18576;SDS011;9418;52.694;13.294;2023-04-27T11:16:19;1.17;;;1.07;;
18576;SDS011;9418;52.694;13.294;2023-04-27T11:18:47;4.07;;;1.20;;
18576;SDS011;9418;52.694;13.294;2023-04-27T11:21:14;4.10;;;1.83;;
18576;SDS011;9418;52.694;13.294;2023-04-27T11:23:42;1.70;;;1.33;;
18576;SDS011;9418;52.694;13.294;2023-04-27T11:26:09;3.77;;;1.37;;
18576;SDS011;9418;52.694;13.294;2023-04-27T11:28:38;1.73;;;1.60;;
18576;SDS011;9418;52.694;13.294;2023-04-27T11:31:05;5.40;;;1.80;;
18576;SDS011;9418;52.694;13.294;2023-04-27T11:33:32;3.20;;;1.40;;
18576;SDS011;9418;52.694;13.294;2023-04-27T11:36:00;4.73;;;1.50;;
18576;SDS011;9418;52.694;13.294;2023-04-27T11:38:31;2.17;;;1.40;;
18576;SDS011;9418;52.694;13.294;2023-04-27T11:40:58;5.87;;;1.40;;
18576;SDS011;9418;52.694;13.294;2023-04-27T11:43:26;2.07;;;1.70;;
18576;SDS011;9418;52.694;13.294;2023-04-27T11:45:53;4.77;;;2.20;;
18576;SDS011;9418;52.694;13.294;2023-04-27T11:48:21;3.00;;;1.40;;
18576;SDS011;9418;52.694;13.294;2023-04-27T11:50:48;5.57;;;1.90;;
18576;SDS011;9418;52.694;13.294;2023-04-27T11:53:17;3.83;;;1.60;;
18576;SDS011;9418;52.694;13.294;2023-04-27T11:55:54;3.77;;;1.67;;
18576;SDS011;9418;52.694;13.294;2023-04-27T11:58:22;9.70;;;1.53;;
18576;SDS011;9418;52.694;13.294;2023-04-27T12:00:50;2.87;;;1.83;;
18576;SDS011;9418;52.694;13.294;2023-04-27T12:03:16;7.93;;;1.50;;
18576;SDS011;9418;52.694;13.294;2023-04-27T12:05:46;1.73;;;1.53;;
18576;SDS011;9418;52.694;13.294;2023-04-27T12:08:13;1.60;;;1.50;;
18576;SDS011;9418;52.694;13.294;2023-04-27T12:10:42;3.83;;;1.83;;
18576;SDS011;9418;52.694;13.294;2023-04-27T12:13:09;8.43;;;1.70;;
18576;SDS011;9418;52.694;13.294;2023-04-27T12:15:36;2.20;;;1.20;;
18576;SDS011;9418;52.694;13.294;2023-04-27T12:18:03;2.83;;;1.57;;
18576;SDS011;9418;52.694;13.294;2023-04-27T12:20:29;3.43;;;1.40;;
18576;SDS011;9418;52.694;13.294;2023-04-27T12:22:56;3.63;;;1.60;;
18576;SDS011;9418;52.694;13.294;2023-04-27T12:25:23;5.60;;;1.70;;
18576;SDS011;9418;52.694;13.294;2023-04-27T12:27:51;3.37;;;2.20;;
18576;SDS011;9418;52.694;13.294;2023-04-27T12:30:18;4.87;;;1.73;;
18576;SDS011;9418;52.694;13.294;2023-04-27T12:32:45;3.30;;;1.50;;
18576;SDS011;9418;52.694;13.294;2023-04-27T12:35:12;4.10;;;1.50;;
18576;SDS011;9418;52.694;13.294;2023-04-27T12:37:39;4.20;;;1.60;;
18576;SDS011;9418;52.694;13.294;2023-04-27T12:40:06;3.67;;;1.60;;
18576;SDS011;9418;52.694;13.294;2023-04-27T12:42:34;3.87;;;1.37;;
18576;SDS011;9418;52.694;13.294;2023-04-27T12:45:02;1.77;;;1.53;;
18576;SDS011;9418;52.694;13.294;2023-04-27T12:47:29;4.30;;;1.40;;
18576;SDS011;9418;52.694;13.294;2023-04-27T12:49:58;2.20;;;1.30;;
18576;SDS011;9418;52.694;13.294;2023-04-27T12:52:26;4.60;;;1.57;;
18576;SDS011;9418;52.694;13.294;2023-04-27T12:54:52;3.03;;;1.30;;
18576;SDS011;9418;52.694;13.294;2023-04-27T12:57:23;4.37;;;1.47;;
18576;SDS011;9418;52.694;13.294;2023-04-27T12:59:50;6.90;;;1.50;;
18576;SDS011;9418;52.694;13.294;2023-04-27T13:02:18;5.53;;;1.53;;
18576;SDS011;9418;52.694;13.294;2023-04-27T13:04:45;4.97;;;1.70;;
18576;SDS011;9418;52.694;13.294;2023-04-27T13:07:11;10.23;;;1.23;;
18576;SDS011;9418;52.694;13.294;2023-04-27T13:09:38;2.57;;;1.47;;
18576;SDS011;9418;52.694;13.294;2023-04-27T13:12:05;2.40;;;1.57;;
18576;SDS011;9418;52.694;13.294;2023-04-27T13:14:32;3.70;;;1.73;;
18576;SDS011;9418;52.694;13.294;2023-04-27T13:16:59;4.70;;;2.63;;
18576;SDS011;9418;52.694;13.294;2023-04-27T13:19:27;5.90;;;1.70;;
18576;SDS011;9418;52.694;13.294;2023-04-27T13:21:54;3.67;;;1.07;;
18576;SDS011;9418;52.694;13.294;2023-04-27T13:24:20;2.33;;;1.10;;
18576;SDS011;9418;52.694;13.294;2023-04-27T13:26:48;3.37;;;1.30;;
18576;SDS011;9418;52.694;13.294;2023-04-27T13:29:15;3.00;;;1.40;;
18576;SDS011;9418;52.694;13.294;2023-04-27T13:31:42;5.87;;;1.30;;
18576;SDS011;9418;52.694;13.294;2023-04-27T13:34:08;2.40;;;1.70;;
18576;SDS011;9418;52.694;13.294;2023-04-27T13:36:37;2.90;;;1.40;;
18576;SDS011;9418;52.694;13.294;2023-04-27T13:39:03;3.53;;;1.30;;
18576;SDS011;9418;52.694;13.294;2023-04-27T13:41:30;6.27;;;1.80;;
18576;SDS011;9418;52.694;13.294;2023-04-27T13:43:57;3.10;;;1.60;;
18576;SDS011;9418;52.694;13.294;2023-04-27T13:46:23;3.07;;;1.70;;
18576;SDS011;9418;52.694;13.294;2023-04-27T13:48:50;14.83;;;1.30;;
18576;SDS011;9418;52.694;13.294;2023-04-27T13:51:17;5.30;;;1.57;;
18576;SDS011;9418;52.694;13.294;2023-04-27T13:53:45;3.07;;;1.23;;
18576;SDS011;9418;52.694;13.294;2023-04-27T13:56:12;2.77;;;1.20;;
18576;SDS011;9418;52.694;13.294;2023-04-27T13:58:38;5.23;;;1.83;;
18576;SDS011;9418;52.694;13.294;2023-04-27T14:01:05;2.70;;;1.30;;
18576;SDS011;9418;52.694;13.294;2023-04-27T14:03:33;2.03;;;1.20;;
18576;SDS011;9418;52.694;13.294;2023-04-27T14:06:00;4.30;;;1.43;;
18576;SDS011;9418;52.694;13.294;2023-04-27T14:08:27;3.63;;;1.30;;
18576;SDS011;9418;52.694;13.294;2023-04-27T14:10:55;4.20;;;1.60;;
18576;SDS011;9418;52.694;13.294;2023-04-27T14:13:21;4.00;;;2.07;;
18576;SDS011;9418;52.694;13.294;2023-04-27T14:15:48;3.27;;;1.67;;
18576;SDS011;9418;52.694;13.294;2023-04-27T14:18:15;2.90;;;1.40;;
18576;SDS011;9418;52.694;13.294;2023-04-27T14:20:41;2.80;;;1.03;;
18576;SDS011;9418;52.694;13.294;2023-04-27T14:23:09;4.63;;;1.80;;
18576;SDS011;9418;52.694;13.294;2023-04-27T14:25:36;2.70;;;1.20;;
18576;SDS011;9418;52.694;13.294;2023-04-27T14:28:04;1.90;;;1.73;;
18576;SDS011;9418;52.694;13.294;2023-04-27T14:30:33;5.60;;;1.60;;
18576;SDS011;9418;52.694;13.294;2023-04-27T14:33:00;2.87;;;1.40;;
18576;SDS011;9418;52.694;13.294;2023-04-27T14:35:27;2.00;;;1.43;;
18576;SDS011;9418;52.694;13.294;2023-04-27T14:37:53;2.80;;;1.43;;
18576;SDS011;9418;52.694;13.294;2023-04-27T14:40:21;2.57;;;1.67;;
18576;SDS011;9418;52.694;13.294;2023-04-27T14:42:47;2.73;;;1.47;;
18576;SDS011;9418;52.694;13.294;2023-04-27T14:45:15;2.33;;;1.40;;
18576;SDS011;9418;52.694;13.294;2023-04-27T14:47:42;2.63;;;1.40;;
18576;SDS011;9418;52.694;13.294;2023-04-27T14:50:09;3.00;;;1.53;;